createdAt,value
2018-04-02T00:00:27.731Z,1008.37
2018-04-02T00:01:27.935Z,1008.40
2018-04-02T00:02:27.719Z,1008.36
2018-04-02T00:03:27.767Z,1008.33
2018-04-02T00:04:27.723Z,1008.33
2018-04-02T00:05:27.715Z,1008.36
2018-04-02T00:06:27.697Z,1008.36
2018-04-02T00:07:27.711Z,1008.32
2018-04-02T00:08:27.711Z,1008.32
2018-04-02T00:09:27.691Z,1008.27
2018-04-02T00:10:27.676Z,1008.27
2018-04-02T00:11:27.667Z,1008.26
2018-04-02T00:12:27.659Z,1008.24
2018-04-02T00:13:27.659Z,1008.24
2018-04-02T00:14:27.653Z,1008.20
2018-04-02T00:15:27.658Z,1008.23
2018-04-02T00:16:27.697Z,1008.21
2018-04-02T00:17:27.634Z,1008.22
2018-04-02T00:18:27.650Z,1008.18
2018-04-02T00:19:27.635Z,1008.22
2018-04-02T00:20:27.623Z,1008.19
2018-04-02T00:21:27.610Z,1008.17
2018-04-02T00:22:27.602Z,1008.21
2018-04-02T00:23:27.810Z,1008.19
2018-04-02T00:24:27.605Z,1008.16
2018-04-02T00:25:27.583Z,1008.14
2018-04-02T00:26:27.782Z,1008.16
2018-04-02T00:27:27.573Z,1008.14
2018-04-02T00:28:27.578Z,1008.11
2018-04-02T00:29:27.573Z,1008.14
2018-04-02T00:30:27.554Z,1008.18
2018-04-02T00:31:27.545Z,1008.16
2018-04-02T00:32:27.542Z,1008.18
2018-04-02T00:33:27.767Z,1008.15
2018-04-02T00:34:27.555Z,1008.13
2018-04-02T00:35:27.535Z,1008.13
2018-04-02T00:36:27.522Z,1008.16
2018-04-02T00:37:27.522Z,1008.13
2018-04-02T00:38:27.515Z,1008.15
2018-04-02T00:39:27.512Z,1008.16
2018-04-02T00:40:27.513Z,1008.13
2018-04-02T00:41:27.499Z,1008.15
2018-04-02T00:42:27.506Z,1008.14
2018-04-02T00:43:27.478Z,1008.07
2018-04-02T00:44:27.482Z,1008.09
2018-04-02T00:45:27.467Z,1008.05
2018-04-02T00:46:27.482Z,1008.07
2018-04-02T00:47:27.464Z,1008.06
2018-04-02T00:48:27.463Z,1008.05
2018-04-02T00:49:27.451Z,1008.06
2018-04-02T00:50:27.457Z,1008.00
2018-04-02T00:51:27.429Z,1008.00
2018-04-02T00:52:27.452Z,1007.99
2018-04-02T00:53:27.644Z,1007.96
2018-04-02T00:54:27.411Z,1007.97
2018-04-02T00:55:27.407Z,1007.98
2018-04-02T00:56:27.427Z,1007.94
2018-04-02T00:57:27.407Z,1007.92
2018-04-02T00:58:27.404Z,1007.90
2018-04-02T00:59:27.611Z,1007.89
2018-04-02T01:00:27.380Z,1007.89
2018-04-02T01:01:27.597Z,1007.88
2018-04-02T01:02:27.379Z,1007.90
2018-04-02T01:03:27.564Z,1007.88
2018-04-02T01:04:27.354Z,1007.85
2018-04-02T01:05:27.564Z,1007.87
2018-04-02T01:06:27.340Z,1007.84
2018-04-02T01:07:27.347Z,1007.84
2018-04-02T01:08:27.342Z,1007.83
2018-04-02T01:09:27.541Z,1007.79
2018-04-02T01:10:27.534Z,1007.80
2018-04-02T01:11:27.331Z,1007.76
2018-04-02T01:12:27.308Z,1007.75
2018-04-02T01:13:27.300Z,1007.72
2018-04-02T01:14:27.500Z,1007.74
2018-04-02T01:15:27.286Z,1007.70
2018-04-02T01:16:27.494Z,1007.72
2018-04-02T01:17:27.275Z,1007.71
2018-04-02T01:18:27.278Z,1007.73
2018-04-02T01:19:27.263Z,1007.70
2018-04-02T01:20:27.255Z,1007.68
2018-04-02T01:21:27.254Z,1007.66
2018-04-02T01:22:27.286Z,1007.68
2018-04-02T01:23:27.451Z,1007.70
2018-04-02T01:24:27.238Z,1007.68
2018-04-02T01:25:27.227Z,1007.67
2018-04-02T01:26:27.231Z,1007.67
2018-04-02T01:27:27.212Z,1007.65
2018-04-02T01:28:27.217Z,1007.72
2018-04-02T01:29:27.215Z,1007.63
2018-04-02T01:30:27.396Z,1007.67
2018-04-02T01:31:27.203Z,1007.67
2018-04-02T01:32:27.384Z,1007.68
2018-04-02T01:33:27.178Z,1007.65
2018-04-02T01:34:27.171Z,1007.65
2018-04-02T01:35:27.164Z,1007.63
2018-04-02T01:36:27.173Z,1007.65
2018-04-02T01:37:27.175Z,1007.70
2018-04-02T01:38:27.361Z,1007.64
2018-04-02T01:39:27.140Z,1007.65
2018-04-02T01:40:27.358Z,1007.60
2018-04-02T01:41:27.126Z,1007.59
2018-04-02T01:42:27.124Z,1007.60
2018-04-02T01:43:27.342Z,1007.55
2018-04-02T01:44:27.328Z,1007.52
2018-04-02T01:45:27.117Z,1007.52
2018-04-02T01:46:27.099Z,1007.44
2018-04-02T01:47:27.294Z,1007.47
2018-04-02T01:48:27.089Z,1007.48
2018-04-02T01:49:27.084Z,1007.47
2018-04-02T01:50:27.101Z,1007.45
2018-04-02T01:51:27.089Z,1007.48
2018-04-02T01:52:27.280Z,1007.52
2018-04-02T01:53:27.059Z,1007.50
2018-04-02T01:54:27.265Z,1007.47
2018-04-02T01:55:27.040Z,1007.47
2018-04-02T01:56:27.265Z,1007.44
2018-04-02T01:57:27.041Z,1007.46
2018-04-02T01:58:27.036Z,1007.42
2018-04-02T01:59:27.235Z,1007.42
2018-04-02T02:00:27.023Z,1007.38
2018-04-02T02:01:27.017Z,1007.40
2018-04-02T02:02:26.998Z,1007.39
2018-04-02T02:03:27.008Z,1007.33
2018-04-02T02:04:26.999Z,1007.33
2018-04-02T02:05:26.991Z,1007.33
2018-04-02T02:06:26.996Z,1007.28
2018-04-02T02:07:27.193Z,1007.30
2018-04-02T02:08:27.171Z,1007.27
2018-04-02T02:09:26.970Z,1007.30
2018-04-02T02:10:26.973Z,1007.30
2018-04-02T02:11:26.952Z,1007.31
2018-04-02T02:12:26.957Z,1007.33
2018-04-02T02:13:26.954Z,1007.27
2018-04-02T02:14:26.924Z,1007.28
2018-04-02T02:15:26.938Z,1007.24
2018-04-02T02:16:26.919Z,1007.19
2018-04-02T02:17:26.932Z,1007.15
2018-04-02T02:18:26.898Z,1007.13
2018-04-02T02:19:26.901Z,1007.14
2018-04-02T02:20:26.883Z,1007.14
2018-04-02T02:21:27.079Z,1007.15
2018-04-02T02:22:26.880Z,1007.16
2018-04-02T02:23:27.066Z,1007.16
2018-04-02T02:24:27.068Z,1007.11
2018-04-02T02:25:26.866Z,1007.10
2018-04-02T02:26:26.851Z,1007.14
2018-04-02T02:27:27.063Z,1007.12
2018-04-02T02:28:26.851Z,1007.11
2018-04-02T02:29:26.835Z,1007.10
2018-04-02T02:30:26.842Z,1007.11
2018-04-02T02:31:26.837Z,1007.14
2018-04-02T02:32:26.815Z,1007.08
2018-04-02T02:33:26.799Z,1007.09
2018-04-02T02:34:26.807Z,1007.08
2018-04-02T02:35:26.797Z,1007.07
2018-04-02T02:36:26.787Z,1007.08
2018-04-02T02:37:26.783Z,1007.04
2018-04-02T02:38:26.776Z,1007.06
2018-04-02T02:39:26.763Z,1007.04
2018-04-02T02:40:26.785Z,1007.01
2018-04-02T02:41:26.758Z,1006.97
2018-04-02T02:42:26.748Z,1006.99
2018-04-02T02:43:26.961Z,1006.96
2018-04-02T02:44:26.767Z,1006.93
2018-04-02T02:45:26.719Z,1006.95
2018-04-02T02:46:26.710Z,1006.91
2018-04-02T02:47:26.715Z,1006.90
2018-04-02T02:48:26.701Z,1006.93
2018-04-02T02:49:26.911Z,1006.95
2018-04-02T02:50:26.900Z,1006.89
2018-04-02T02:51:26.886Z,1006.93
2018-04-02T02:52:26.877Z,1006.87
2018-04-02T02:53:26.670Z,1006.87
2018-04-02T02:54:26.866Z,1006.85
2018-04-02T02:55:26.859Z,1006.83
2018-04-02T02:56:26.646Z,1006.83
2018-04-02T02:57:26.858Z,1006.83
2018-04-02T02:58:26.641Z,1006.81
2018-04-02T02:59:26.637Z,1006.80
2018-04-02T03:00:26.633Z,1006.81
2018-04-02T03:01:26.615Z,1006.79
2018-04-02T03:02:26.818Z,1006.75
2018-04-02T03:03:26.603Z,1006.74
2018-04-02T03:04:26.603Z,1006.72
2018-04-02T03:05:26.591Z,1006.70
2018-04-02T03:06:26.592Z,1006.72
2018-04-02T03:07:26.601Z,1006.75
2018-04-02T03:08:26.577Z,1006.74
2018-04-02T03:09:26.766Z,1006.69
2018-04-02T03:10:26.777Z,1006.67
2018-04-02T03:11:26.575Z,1006.68
2018-04-02T03:12:26.571Z,1006.69
2018-04-02T03:13:26.536Z,1006.70
2018-04-02T03:14:26.539Z,1006.73
2018-04-02T03:15:26.537Z,1006.72
2018-04-02T03:16:26.530Z,1006.70
2018-04-02T03:17:26.534Z,1006.71
2018-04-02T03:18:26.513Z,1006.64
2018-04-02T03:19:26.496Z,1006.67
2018-04-02T03:20:26.491Z,1006.67
2018-04-02T03:21:26.496Z,1006.64
2018-04-02T03:22:26.511Z,1006.68
2018-04-02T03:23:26.480Z,1006.66
2018-04-02T03:24:26.680Z,1006.66
2018-04-02T03:25:26.486Z,1006.67
2018-04-02T03:26:26.664Z,1006.61
2018-04-02T03:27:26.674Z,1006.69
2018-04-02T03:28:26.442Z,1006.69
2018-04-02T03:29:26.435Z,1006.65
2018-04-02T03:30:26.441Z,1006.64
2018-04-02T03:31:26.435Z,1006.56
2018-04-02T03:32:26.642Z,1006.57
2018-04-02T03:33:26.430Z,1006.54
2018-04-02T03:34:26.422Z,1006.55
2018-04-02T03:35:26.419Z,1006.52
2018-04-02T03:36:26.387Z,1006.50
2018-04-02T03:37:26.587Z,1006.48
2018-04-02T03:38:26.388Z,1006.49
2018-04-02T03:39:26.608Z,1006.49
2018-04-02T03:40:26.376Z,1006.54
2018-04-02T03:41:26.580Z,1006.48
2018-04-02T03:42:26.556Z,1006.49
2018-04-02T03:43:26.376Z,1006.47
2018-04-02T03:44:26.361Z,1006.47
2018-04-02T03:45:26.361Z,1006.41
2018-04-02T03:46:26.327Z,1006.41
2018-04-02T03:47:26.336Z,1006.40
2018-04-02T03:48:26.540Z,1006.42
2018-04-02T03:49:26.335Z,1006.46
2018-04-02T03:50:26.314Z,1006.43
2018-04-02T03:51:26.298Z,1006.40
2018-04-02T03:52:26.292Z,1006.41
2018-04-02T03:53:26.286Z,1006.43
2018-04-02T03:54:26.482Z,1006.40
2018-04-02T03:55:26.473Z,1006.40
2018-04-02T03:56:26.282Z,1006.39
2018-04-02T03:57:26.494Z,1006.41
2018-04-02T03:58:26.489Z,1006.39
2018-04-02T03:59:26.263Z,1006.39
2018-04-02T04:00:26.267Z,1006.39
2018-04-02T04:01:26.272Z,1006.41
2018-04-02T04:02:26.245Z,1006.40
2018-04-02T04:03:26.247Z,1006.38
2018-04-02T04:04:26.237Z,1006.39
2018-04-02T04:05:26.210Z,1006.40
2018-04-02T04:06:26.206Z,1006.35
2018-04-02T04:07:26.210Z,1006.36
2018-04-02T04:08:26.398Z,1006.36
2018-04-02T04:09:26.188Z,1006.31
2018-04-02T04:10:26.387Z,1006.39
2018-04-02T04:11:26.376Z,1006.31
2018-04-02T04:12:26.381Z,1006.31
2018-04-02T04:13:26.177Z,1006.30
2018-04-02T04:14:26.152Z,1006.28
2018-04-02T04:15:26.159Z,1006.29
2018-04-02T04:16:26.143Z,1006.28
2018-04-02T04:17:26.155Z,1006.27
2018-04-02T04:18:26.142Z,1006.28
2018-04-02T04:19:26.352Z,1006.27
2018-04-02T04:20:26.126Z,1006.22
2018-04-02T04:21:26.109Z,1006.21
2018-04-02T04:22:26.127Z,1006.19
2018-04-02T04:23:26.312Z,1006.20
2018-04-02T04:24:26.090Z,1006.24
2018-04-02T04:25:26.297Z,1006.23
2018-04-02T04:26:26.080Z,1006.18
2018-04-02T04:27:26.070Z,1006.18
2018-04-02T04:28:26.067Z,1006.21
2018-04-02T04:29:26.055Z,1006.22
2018-04-02T04:30:26.076Z,1006.22
2018-04-02T04:31:26.053Z,1006.27
2018-04-02T04:32:26.041Z,1006.27
2018-04-02T04:33:26.249Z,1006.23
2018-04-02T04:34:26.025Z,1006.22
2018-04-02T04:35:26.249Z,1006.23
2018-04-02T04:36:26.016Z,1006.21
2018-04-02T04:37:26.037Z,1006.21
2018-04-02T04:38:26.012Z,1006.19
2018-04-02T04:39:26.004Z,1006.20
2018-04-02T04:40:26.034Z,1006.22
2018-04-02T04:41:25.984Z,1006.19
2018-04-02T04:42:25.974Z,1006.16
2018-04-02T04:43:25.971Z,1006.19
2018-04-02T04:44:25.971Z,1006.19
2018-04-02T04:45:25.971Z,1006.15
2018-04-02T04:46:26.163Z,1006.21
2018-04-02T04:47:25.966Z,1006.17
2018-04-02T04:48:25.931Z,1006.16
2018-04-02T04:49:25.935Z,1006.14
2018-04-02T04:50:25.933Z,1006.09
2018-04-02T04:51:25.938Z,1006.09
2018-04-02T04:52:25.930Z,1006.11
2018-04-02T04:53:26.119Z,1006.07
2018-04-02T04:54:26.111Z,1006.08
2018-04-02T04:55:25.886Z,1006.08
2018-04-02T04:56:25.893Z,1006.07
2018-04-02T04:57:25.889Z,1006.04
2018-04-02T04:58:25.880Z,1006.03
2018-04-02T04:59:25.973Z,1006.03
2018-04-02T05:00:25.864Z,1006.07
2018-04-02T05:01:25.868Z,1006.05
2018-04-02T05:02:26.042Z,1006.02
2018-04-02T05:03:25.831Z,1006.06
2018-04-02T05:04:25.844Z,1005.99
2018-04-02T05:05:26.047Z,1006.01
2018-04-02T05:06:25.832Z,1006.01
2018-04-02T05:07:25.817Z,1005.99
2018-04-02T05:08:25.807Z,1006.00
2018-04-02T05:09:25.816Z,1005.96
2018-04-02T05:10:25.813Z,1005.96
2018-04-02T05:11:25.796Z,1005.94
2018-04-02T05:12:25.811Z,1005.93
2018-04-02T05:13:25.980Z,1005.89
2018-04-02T05:14:25.974Z,1005.90
2018-04-02T05:15:25.957Z,1005.92
2018-04-02T05:16:25.748Z,1005.91
2018-04-02T05:17:25.961Z,1005.90
2018-04-02T05:18:25.747Z,1005.90
2018-04-02T05:19:25.740Z,1005.88
2018-04-02T05:20:25.736Z,1005.93
2018-04-02T05:21:25.940Z,1005.91
2018-04-02T05:22:25.732Z,1005.88
2018-04-02T05:23:25.732Z,1005.88
2018-04-02T05:24:25.706Z,1005.89
2018-04-02T05:25:25.689Z,1005.88
2018-04-02T05:26:25.713Z,1005.89
2018-04-02T05:27:25.671Z,1005.85
2018-04-02T05:28:25.678Z,1005.88
2018-04-02T05:29:25.692Z,1005.89
2018-04-02T05:30:25.870Z,1005.87
2018-04-02T05:31:25.876Z,1005.84
2018-04-02T05:32:25.660Z,1005.83
2018-04-02T05:33:25.640Z,1005.80
2018-04-02T05:34:25.624Z,1005.78
2018-04-02T05:35:25.831Z,1005.79
2018-04-02T05:36:25.608Z,1005.79
2018-04-02T05:37:25.606Z,1005.77
2018-04-02T05:38:25.633Z,1005.72
2018-04-02T05:39:25.809Z,1005.73
2018-04-02T05:40:25.594Z,1005.71
2018-04-02T05:41:25.573Z,1005.72
2018-04-02T05:42:25.783Z,1005.69
2018-04-02T05:43:25.573Z,1005.71
2018-04-02T05:44:25.591Z,1005.66
2018-04-02T05:45:25.565Z,1005.67
2018-04-02T05:46:25.758Z,1005.69
2018-04-02T05:47:25.765Z,1005.67
2018-04-02T05:48:25.531Z,1005.65
2018-04-02T05:49:25.558Z,1005.69
2018-04-02T05:50:25.516Z,1005.64
2018-04-02T05:51:25.521Z,1005.65
2018-04-02T05:52:25.708Z,1005.65
2018-04-02T05:53:25.522Z,1005.67
2018-04-02T05:54:25.718Z,1005.67
2018-04-02T05:55:25.496Z,1005.64
2018-04-02T05:56:25.701Z,1005.63
2018-04-02T05:57:25.490Z,1005.61
2018-04-02T05:58:25.467Z,1005.61
2018-04-02T05:59:25.483Z,1005.61
2018-04-02T06:00:25.455Z,1005.59
2018-04-02T06:01:25.461Z,1005.60
2018-04-02T06:02:25.452Z,1005.56
2018-04-02T06:03:25.460Z,1005.55
2018-04-02T06:04:25.636Z,1005.54
2018-04-02T06:05:25.650Z,1005.58
2018-04-02T06:06:25.417Z,1005.54
2018-04-02T06:07:25.419Z,1005.55
2018-04-02T06:08:25.414Z,1005.54
2018-04-02T06:09:25.611Z,1005.58
2018-04-02T06:10:25.402Z,1005.60
2018-04-02T06:11:25.397Z,1005.57
2018-04-02T06:12:25.380Z,1005.58
2018-04-02T06:13:25.386Z,1005.55
2018-04-02T06:14:25.429Z,1005.54
2018-04-02T06:15:25.362Z,1005.57
2018-04-02T06:16:25.358Z,1005.55
2018-04-02T06:17:25.349Z,1005.57
2018-04-02T06:18:25.341Z,1005.52
2018-04-02T06:19:25.337Z,1005.55
2018-04-02T06:20:25.347Z,1005.53
2018-04-02T06:21:25.350Z,1005.57
2018-04-02T06:22:25.395Z,1005.57
2018-04-02T06:23:25.559Z,1005.56
2018-04-02T06:24:25.355Z,1005.54
2018-04-02T06:25:25.320Z,1005.50
2018-04-02T06:26:25.304Z,1005.49
2018-04-02T06:27:25.494Z,1005.49
2018-04-02T06:28:25.308Z,1005.47
2018-04-02T06:29:25.303Z,1005.52
2018-04-02T06:30:25.295Z,1005.51
2018-04-02T06:31:25.293Z,1005.53
2018-04-02T06:32:25.277Z,1005.53
2018-04-02T06:33:25.266Z,1005.49
2018-04-02T06:34:25.481Z,1005.47
2018-04-02T06:35:25.244Z,1005.47
2018-04-02T06:36:25.238Z,1005.46
2018-04-02T06:37:25.228Z,1005.46
2018-04-02T06:38:25.248Z,1005.42
2018-04-02T06:39:25.242Z,1005.46
2018-04-02T06:40:25.235Z,1005.46
2018-04-02T06:41:25.214Z,1005.44
2018-04-02T06:42:25.225Z,1005.41
2018-04-02T06:43:25.412Z,1005.39
2018-04-02T06:44:25.240Z,1005.43
2018-04-02T06:45:25.210Z,1005.40
2018-04-02T06:46:25.190Z,1005.41
2018-04-02T06:47:25.189Z,1005.42
2018-04-02T06:48:25.184Z,1005.43
2018-04-02T06:49:25.160Z,1005.40
2018-04-02T06:50:25.167Z,1005.41
2018-04-02T06:51:25.379Z,1005.41
2018-04-02T06:52:25.168Z,1005.38
2018-04-02T06:53:25.160Z,1005.36
2018-04-02T06:54:25.146Z,1005.34
2018-04-02T06:55:25.354Z,1005.40
2018-04-02T06:56:25.134Z,1005.35
2018-04-02T06:57:25.115Z,1005.36
2018-04-02T06:58:25.110Z,1005.38
2018-04-02T06:59:25.107Z,1005.40
2018-04-02T07:00:25.112Z,1005.36
2018-04-02T07:01:25.094Z,1005.38
2018-04-02T07:02:25.087Z,1005.37
2018-04-02T07:03:25.082Z,1005.32
2018-04-02T07:04:25.127Z,1005.35
2018-04-02T07:05:25.070Z,1005.31
2018-04-02T07:06:25.268Z,1005.32
2018-04-02T07:07:25.071Z,1005.31
2018-04-02T07:08:25.270Z,1005.33
2018-04-02T07:09:25.049Z,1005.33
2018-04-02T07:10:25.062Z,1005.31
2018-04-02T07:11:25.046Z,1005.34
2018-04-02T07:12:25.052Z,1005.32
2018-04-02T07:13:25.254Z,1005.28
2018-04-02T07:14:25.035Z,1005.30
2018-04-02T07:15:25.023Z,1005.30
2018-04-02T07:16:25.225Z,1005.29
2018-04-02T07:17:25.023Z,1005.29
2018-04-02T07:18:24.999Z,1005.28
2018-04-02T07:19:25.213Z,1005.28
2018-04-02T07:20:24.988Z,1005.24
2018-04-02T07:21:25.013Z,1005.23
2018-04-02T07:22:24.983Z,1005.25
2018-04-02T07:23:24.968Z,1005.22
2018-04-02T07:24:25.182Z,1005.22
2018-04-02T07:25:25.163Z,1005.18
2018-04-02T07:26:24.953Z,1005.18
2018-04-02T07:27:24.950Z,1005.16
2018-04-02T07:28:24.954Z,1005.16
2018-04-02T07:29:24.965Z,1005.14
2018-04-02T07:30:24.927Z,1005.13
2018-04-02T07:31:24.938Z,1005.13
2018-04-02T07:32:24.917Z,1005.17
2018-04-02T07:33:25.118Z,1005.12
2018-04-02T07:34:24.908Z,1005.10
2018-04-02T07:35:24.910Z,1005.08
2018-04-02T07:36:24.908Z,1005.05
2018-04-02T07:37:24.908Z,1005.10
2018-04-02T07:38:24.899Z,1005.04
2018-04-02T07:39:24.879Z,1005.07
2018-04-02T07:40:25.076Z,1005.05
2018-04-02T07:41:24.869Z,1005.05
2018-04-02T07:42:24.876Z,1005.01
2018-04-02T07:43:24.861Z,1005.02
2018-04-02T07:44:24.868Z,1004.97
2018-04-02T07:45:25.051Z,1005.02
2018-04-02T07:46:24.851Z,1004.96
2018-04-02T07:47:24.852Z,1004.93
2018-04-02T07:48:25.091Z,1004.95
2018-04-02T07:49:24.848Z,1004.90
2018-04-02T07:50:24.843Z,1004.89
2018-04-02T07:51:25.019Z,1004.88
2018-04-02T07:52:24.807Z,1004.90
2018-04-02T07:53:24.814Z,1004.87
2018-04-02T07:54:25.016Z,1004.90
2018-04-02T07:55:24.803Z,1004.86
2018-04-02T07:56:24.786Z,1004.89
2018-04-02T07:57:24.801Z,1004.87
2018-04-02T07:58:24.796Z,1004.89
2018-04-02T07:59:24.771Z,1004.84
2018-04-02T08:00:24.765Z,1004.84
2018-04-02T08:01:24.986Z,1004.86
2018-04-02T08:02:24.754Z,1004.84
2018-04-02T08:03:24.762Z,1004.87
2018-04-02T08:04:24.967Z,1004.88
2018-04-02T08:05:24.741Z,1004.86
2018-04-02T08:06:24.747Z,1004.86
2018-04-02T08:07:24.742Z,1004.90
2018-04-02T08:08:24.735Z,1004.92
2018-04-02T08:09:24.947Z,1004.88
2018-04-02T08:10:24.710Z,1004.87
2018-04-02T08:11:24.719Z,1004.89
2018-04-02T08:12:24.715Z,1004.86
2018-04-02T08:13:24.709Z,1004.89
2018-04-02T08:14:24.908Z,1004.87
2018-04-02T08:15:24.689Z,1004.90
2018-04-02T08:16:24.685Z,1004.86
2018-04-02T08:17:24.880Z,1004.89
2018-04-02T08:18:24.671Z,1004.82
2018-04-02T08:19:24.665Z,1004.84
2018-04-02T08:20:24.657Z,1004.86
2018-04-02T08:21:24.715Z,1004.80
2018-04-02T08:22:24.660Z,1004.77
2018-04-02T08:23:24.644Z,1004.77
2018-04-02T08:24:24.637Z,1004.76
2018-04-02T08:25:24.692Z,1004.73
2018-04-02T08:26:24.628Z,1004.74
2018-04-02T08:27:24.626Z,1004.71
2018-04-02T08:28:24.632Z,1004.67
2018-04-02T08:29:24.842Z,1004.69
2018-04-02T08:30:24.813Z,1004.67
2018-04-02T08:31:24.827Z,1004.70
2018-04-02T08:32:24.664Z,1004.66
2018-04-02T08:33:24.620Z,1004.71
2018-04-02T08:34:24.615Z,1004.63
2018-04-02T08:35:24.605Z,1004.65
2018-04-02T08:36:24.582Z,1004.64
2018-04-02T08:37:24.580Z,1004.52
2018-04-02T08:38:24.572Z,1004.61
2018-04-02T08:39:24.577Z,1004.60
2018-04-02T08:40:25.397Z,1004.57
2018-04-02T08:41:24.581Z,1004.60
2018-04-02T08:42:24.763Z,1004.55
2018-04-02T08:43:24.568Z,1004.57
2018-04-02T08:44:24.589Z,1004.55
2018-04-02T08:45:24.737Z,1004.54
2018-04-02T08:46:24.529Z,1004.51
2018-04-02T08:47:24.544Z,1004.49
2018-04-02T08:48:24.746Z,1004.52
2018-04-02T08:49:24.520Z,1004.53
2018-04-02T08:50:24.735Z,1004.53
2018-04-02T08:51:24.519Z,1004.50
2018-04-02T08:52:24.513Z,1004.52
2018-04-02T08:53:24.499Z,1004.50
2018-04-02T08:54:24.491Z,1004.51
2018-04-02T08:55:24.730Z,1004.48
2018-04-02T08:56:24.492Z,1004.48
2018-04-02T08:57:24.487Z,1004.54
2018-04-02T08:58:24.474Z,1004.52
2018-04-02T08:59:24.672Z,1004.48
2018-04-02T09:00:24.478Z,1004.46
2018-04-02T09:01:24.679Z,1004.49
2018-04-02T09:02:24.470Z,1004.50
2018-04-02T09:03:24.450Z,1004.53
2018-04-02T09:04:24.449Z,1004.50
2018-04-02T09:05:24.454Z,1004.50
2018-04-02T09:06:24.448Z,1004.51
2018-04-02T09:07:24.648Z,1004.57
2018-04-02T09:08:24.432Z,1004.51
2018-04-02T09:09:24.446Z,1004.53
2018-04-02T09:10:24.419Z,1004.50
2018-04-02T09:11:24.617Z,1004.48
2018-04-02T09:12:24.410Z,1004.48
2018-04-02T09:13:24.623Z,1004.45
2018-04-02T09:14:24.428Z,1004.42
2018-04-02T09:15:24.396Z,1004.44
2018-04-02T09:16:24.391Z,1004.43
2018-04-02T09:17:24.398Z,1004.40
2018-04-02T09:18:24.421Z,1004.38
2018-04-02T09:19:24.580Z,1004.34
2018-04-02T09:20:24.578Z,1004.35
2018-04-02T09:21:24.382Z,1004.32
2018-04-02T09:22:24.378Z,1004.29
2018-04-02T09:23:24.363Z,1004.27
2018-04-02T09:24:24.583Z,1004.26
2018-04-02T09:25:24.363Z,1004.23
2018-04-02T09:26:24.351Z,1004.24
2018-04-02T09:27:24.355Z,1004.23
2018-04-02T09:28:24.354Z,1004.26
2018-04-02T09:29:24.338Z,1004.24
2018-04-02T09:30:24.353Z,1004.23
2018-04-02T09:31:24.342Z,1004.18
2018-04-02T09:32:24.323Z,1004.23
2018-04-02T09:33:24.534Z,1004.18
2018-04-02T09:34:24.324Z,1004.15
2018-04-02T09:35:24.310Z,1004.13
2018-04-02T09:36:24.316Z,1004.13
2018-04-02T09:37:24.520Z,1004.08
2018-04-02T09:38:24.298Z,1004.10
2018-04-02T09:39:24.304Z,1004.08
2018-04-02T09:40:24.306Z,1004.08
2018-04-02T09:41:24.285Z,1004.02
2018-04-02T09:42:24.280Z,1003.95
2018-04-02T09:43:24.273Z,1003.96
2018-04-02T09:44:24.488Z,1003.94
2018-04-02T09:45:24.290Z,1003.93
2018-04-02T09:46:24.266Z,1003.91
2018-04-02T09:47:24.283Z,1003.88
2018-04-02T09:48:24.256Z,1003.87
2018-04-02T09:49:24.267Z,1003.87
2018-04-02T09:50:24.248Z,1003.84
2018-04-02T09:51:24.245Z,1003.82
2018-04-02T09:52:24.251Z,1003.81
2018-04-02T09:53:24.251Z,1003.81
2018-04-02T09:54:24.230Z,1003.76
2018-04-02T09:55:24.229Z,1003.73
2018-04-02T09:56:24.466Z,1003.66
2018-04-02T09:57:24.241Z,1003.65
2018-04-02T09:58:24.235Z,1003.68
2018-04-02T09:59:24.275Z,1003.64
2018-04-02T10:00:24.231Z,1003.63
2018-04-02T10:01:24.228Z,1003.64
2018-04-02T10:02:24.216Z,1003.56
2018-04-02T10:03:24.213Z,1003.56
2018-04-02T10:04:24.424Z,1003.57
2018-04-02T10:05:24.190Z,1003.46
2018-04-02T10:06:24.186Z,1003.34
2018-04-02T10:07:24.196Z,1003.45
2018-04-02T10:08:24.178Z,1003.46
2018-04-02T10:09:24.389Z,1003.37
2018-04-02T10:10:24.428Z,1003.42
2018-04-02T10:11:24.384Z,1003.39
2018-04-02T10:12:24.176Z,1003.38
2018-04-02T10:13:24.176Z,1003.30
2018-04-02T10:14:24.159Z,1003.30
2018-04-02T10:15:24.381Z,1003.25
2018-04-02T10:16:24.164Z,1003.27
2018-04-02T10:17:24.158Z,1003.26
2018-04-02T10:18:24.145Z,1003.25
2018-04-02T10:19:24.156Z,1003.21
2018-04-02T10:20:24.163Z,1003.19
2018-04-02T10:21:24.140Z,1003.15
2018-04-02T10:22:24.131Z,1003.18
2018-04-02T10:23:24.129Z,1003.13
2018-04-02T10:24:24.124Z,1003.15
2018-04-02T10:25:24.122Z,1003.08
2018-04-02T10:26:24.339Z,1003.10
2018-04-02T10:27:24.116Z,1003.02
2018-04-02T10:28:24.122Z,1003.05
2018-04-02T10:29:24.132Z,1003.03
2018-04-02T10:30:24.135Z,1003.08
2018-04-02T10:31:24.112Z,1003.01
2018-04-02T10:32:24.110Z,1003.00
2018-04-02T10:33:24.092Z,1003.05
2018-04-02T10:34:24.125Z,1003.02
2018-04-02T10:35:24.312Z,1003.05
2018-04-02T10:36:24.104Z,1003.00
2018-04-02T10:37:24.101Z,1002.96
2018-04-02T10:38:24.078Z,1003.02
2018-04-02T10:39:24.100Z,1003.03
2018-04-02T10:40:24.071Z,1003.03
2018-04-02T10:41:24.083Z,1003.05
2018-04-02T10:42:24.094Z,1003.01
2018-04-02T10:43:24.279Z,1003.00
2018-04-02T10:46:20.923Z,1002.94
2018-04-02T10:47:08.117Z,1002.97
2018-04-02T10:48:08.114Z,1002.97
2018-04-02T10:49:08.121Z,1002.91
2018-04-02T10:50:08.110Z,1002.94
2018-04-02T10:51:08.104Z,1002.92
2018-04-02T10:52:08.102Z,1002.93
2018-04-02T10:53:08.120Z,1002.99
2018-04-02T10:54:08.116Z,1002.87
2018-04-02T10:55:08.092Z,1002.87
2018-04-02T10:56:08.093Z,1002.78
2018-04-02T10:57:08.099Z,1002.76
2018-04-02T10:58:08.084Z,1002.76
2018-04-02T10:59:08.090Z,1002.75
2018-04-02T11:00:08.079Z,1002.76
2018-04-02T11:01:08.086Z,1002.75
2018-04-02T11:02:08.069Z,1002.69
2018-04-02T11:03:08.089Z,1002.69
2018-04-02T11:04:08.075Z,1002.69
2018-04-02T11:05:08.082Z,1002.69
2018-04-02T11:06:08.082Z,1002.70
2018-04-02T11:07:08.057Z,1002.62
2018-04-02T11:08:08.050Z,1002.62
2018-04-02T11:09:08.068Z,1002.58
2018-04-02T11:10:08.041Z,1002.63
2018-04-02T11:11:08.057Z,1002.58
2018-04-02T11:12:08.043Z,1002.59
2018-04-02T11:13:08.037Z,1002.54
2018-04-02T11:14:08.032Z,1002.47
2018-04-02T11:15:08.032Z,1002.50
2018-04-02T11:16:08.047Z,1002.46
2018-04-02T11:17:08.028Z,1002.36
2018-04-02T11:18:08.019Z,1002.36
2018-04-02T11:19:08.020Z,1002.38
2018-04-02T11:20:08.028Z,1002.38
2018-04-02T11:21:08.010Z,1002.35
2018-04-02T11:22:08.035Z,1002.32
2018-04-02T11:23:08.025Z,1002.36
2018-04-02T11:24:08.003Z,1002.27
2018-04-02T11:25:07.998Z,1002.25
2018-04-02T11:26:07.996Z,1002.22
2018-04-02T11:27:08.002Z,1002.22
2018-04-02T11:28:07.992Z,1002.16
2018-04-02T11:29:07.999Z,1002.13
2018-04-02T11:30:07.982Z,1002.03
2018-04-02T11:31:07.983Z,1002.06
2018-04-02T11:32:07.981Z,1002.12
2018-04-02T11:33:07.979Z,1002.06
2018-04-02T11:34:08.185Z,1002.08
2018-04-02T11:35:07.967Z,1002.08
2018-04-02T11:36:07.975Z,1002.07
2018-04-02T11:37:07.972Z,1002.04
2018-04-02T11:38:07.955Z,1001.98
2018-04-02T11:39:07.967Z,1002.03
2018-04-02T11:40:07.952Z,1002.01
2018-04-02T11:41:07.960Z,1002.08
2018-04-02T11:42:08.149Z,1002.00
2018-04-02T11:43:07.962Z,1002.04
2018-04-02T11:44:07.950Z,1001.98
2018-04-02T11:45:07.958Z,1001.94
2018-04-02T11:46:07.946Z,1001.90
2018-04-02T11:47:07.945Z,1001.81
2018-04-02T11:48:07.948Z,1001.89
2018-04-02T11:49:07.949Z,1001.82
2018-04-02T11:50:07.930Z,1001.81
2018-04-02T11:51:07.930Z,1001.75
2018-04-02T11:52:07.936Z,1001.76
2018-04-02T11:53:07.922Z,1001.69
2018-04-02T11:54:07.908Z,1001.61
2018-04-02T11:55:07.905Z,1001.73
2018-04-02T11:56:08.105Z,1001.73
2018-04-02T11:57:07.929Z,1001.73
2018-04-02T11:58:07.896Z,1001.79
2018-04-02T11:59:07.896Z,1001.76
2018-04-02T12:00:07.901Z,1001.77
2018-04-02T12:01:07.884Z,1001.69
2018-04-02T12:02:07.885Z,1001.64
2018-04-02T12:03:07.880Z,1001.69
2018-04-02T12:04:07.893Z,1001.72
2018-04-02T12:05:07.886Z,1001.71
2018-04-02T12:06:07.875Z,1001.77
2018-04-02T12:07:07.883Z,1001.70